createdAt,value
2019-02-11T00:02:13.906Z,100.00
2019-02-11T00:04:41.039Z,100.00
2019-02-11T00:07:08.206Z,100.00
2019-02-11T00:09:35.313Z,100.00
2019-02-11T00:12:02.376Z,100.00
2019-02-11T00:14:29.416Z,100.00
2019-02-11T00:16:56.535Z,100.00
2019-02-11T00:19:30.524Z,100.00
2019-02-11T00:21:57.615Z,100.00
2019-02-11T00:24:24.713Z,100.00
2019-02-11T00:26:52.536Z,100.00
2019-02-11T00:29:19.577Z,100.00
2019-02-11T00:31:46.683Z,100.00
2019-02-11T00:34:13.731Z,100.00
2019-02-11T00:36:40.785Z,100.00
2019-02-11T00:39:07.887Z,100.00
2019-02-11T00:41:34.937Z,100.00
2019-02-11T00:44:02.005Z,100.00
2019-02-11T00:46:29.082Z,100.00
2019-02-11T00:48:56.131Z,100.00
2019-02-11T00:51:23.186Z,100.00
2019-02-11T00:53:50.295Z,100.00
2019-02-11T00:56:17.347Z,100.00
2019-02-11T00:58:44.440Z,100.00
2019-02-11T01:01:11.566Z,100.00
2019-02-11T01:03:38.711Z,100.00
2019-02-11T01:06:05.789Z,100.00
2019-02-11T01:08:32.870Z,100.00
2019-02-11T01:10:59.969Z,100.00
2019-02-11T01:13:28.040Z,100.00
2019-02-11T01:15:55.244Z,100.00
2019-02-11T01:18:22.351Z,100.00
2019-02-11T01:20:49.412Z,100.00
2019-02-11T01:23:16.463Z,100.00
2019-02-11T01:25:43.548Z,100.00
2019-02-11T01:28:10.743Z,100.00
2019-02-11T01:30:39.912Z,100.00
2019-02-11T01:33:06.987Z,100.00
2019-02-11T01:35:37.001Z,100.00
2019-02-11T01:38:04.082Z,100.00
2019-02-11T01:40:31.196Z,100.00
2019-02-11T01:43:04.530Z,100.00
2019-02-11T01:45:31.589Z,100.00
2019-02-11T01:47:58.783Z,100.00
2019-02-11T01:50:25.866Z,100.00
2019-02-11T01:52:52.927Z,100.00
2019-02-11T01:55:20.320Z,100.00
2019-02-11T01:57:47.466Z,100.00
2019-02-11T02:00:14.529Z,100.00
2019-02-11T02:02:41.663Z,100.00
2019-02-11T02:05:08.846Z,100.00
2019-02-11T02:07:35.895Z,100.00
2019-02-11T02:10:03.592Z,100.00
2019-02-11T02:12:30.649Z,100.00
2019-02-11T02:14:58.995Z,100.00
2019-02-11T02:17:26.091Z,100.00
2019-02-11T02:19:53.144Z,100.00
2019-02-11T02:22:20.198Z,100.00
2019-02-11T02:24:47.289Z,100.00
2019-02-11T02:27:14.341Z,100.00
2019-02-11T02:29:50.424Z,100.00
2019-02-11T02:32:17.535Z,100.00
2019-02-11T02:34:44.586Z,100.00
2019-02-11T02:37:11.795Z,100.00
2019-02-11T02:39:38.855Z,100.00
2019-02-11T02:42:07.701Z,100.00
2019-02-11T02:44:34.793Z,100.00
2019-02-11T02:47:01.882Z,100.00
2019-02-11T02:49:28.978Z,100.00
2019-02-11T02:51:56.081Z,100.00
2019-02-11T02:54:23.163Z,100.00
2019-02-11T02:56:50.207Z,100.00
2019-02-11T02:59:20.121Z,100.00
2019-02-11T03:01:47.203Z,100.00
2019-02-11T03:04:14.251Z,100.00
2019-02-11T03:06:41.289Z,100.00
2019-02-11T03:09:09.882Z,100.00
2019-02-11T03:11:36.939Z,100.00
2019-02-11T03:14:06.184Z,100.00
2019-02-11T03:16:32.988Z,100.00
2019-02-11T03:19:00.039Z,100.00
2019-02-11T03:21:27.098Z,100.00
2019-02-11T03:23:54.209Z,100.00
2019-02-11T03:26:21.240Z,100.00
2019-02-11T03:28:48.292Z,100.00
2019-02-11T03:31:15.599Z,100.00
2019-02-11T03:33:42.646Z,100.00
2019-02-11T03:36:09.782Z,100.00
2019-02-11T03:38:36.862Z,100.00
2019-02-11T03:41:03.921Z,100.00
2019-02-11T03:43:30.973Z,100.00
2019-02-11T03:45:58.066Z,100.00
2019-02-11T03:48:26.536Z,100.00
2019-02-11T03:50:53.641Z,100.00
2019-02-11T03:53:20.999Z,100.00
2019-02-11T03:55:50.618Z,100.00
2019-02-11T03:58:17.839Z,100.00
2019-02-11T04:00:44.928Z,100.00
2019-02-11T04:03:11.965Z,100.00
2019-02-11T04:05:39.030Z,100.00
2019-02-11T04:08:06.127Z,100.00
2019-02-11T04:10:33.181Z,100.00
2019-02-11T04:13:00.239Z,100.00
2019-02-11T04:15:27.313Z,100.00
2019-02-11T04:17:55.473Z,100.00
2019-02-11T04:20:23.755Z,100.00
2019-02-11T04:22:52.597Z,100.00
2019-02-11T04:25:19.675Z,100.00
2019-02-11T04:27:46.714Z,100.00
2019-02-11T04:30:13.852Z,100.00
2019-02-11T04:32:43.441Z,100.00
2019-02-11T04:35:10.490Z,100.00
2019-02-11T04:37:37.713Z,100.00
2019-02-11T04:40:05.901Z,100.00
2019-02-11T04:42:32.942Z,100.00
2019-02-11T04:45:04.350Z,100.00
2019-02-11T04:47:31.409Z,100.00
2019-02-11T04:49:58.473Z,100.00
2019-02-11T04:52:25.576Z,100.00
2019-02-11T04:54:52.650Z,100.00
2019-02-11T04:57:22.039Z,100.00
2019-02-11T04:59:49.240Z,100.00
2019-02-11T05:02:20.670Z,100.00
2019-02-11T05:04:49.536Z,100.00
2019-02-11T05:07:19.731Z,100.00
2019-02-11T05:09:46.780Z,100.00
2019-02-11T05:12:32.176Z,100.00
2019-02-11T05:14:59.265Z,100.00
2019-02-11T05:17:29.688Z,100.00
2019-02-11T05:19:56.971Z,100.00
2019-02-11T05:22:25.054Z,100.00
2019-02-11T05:24:52.090Z,100.00
2019-02-11T05:27:19.296Z,100.00
2019-02-11T05:29:46.352Z,100.00
2019-02-11T05:32:13.527Z,100.00
2019-02-11T05:34:40.619Z,100.00
2019-02-11T05:37:13.998Z,100.00
2019-02-11T05:39:41.192Z,100.00
2019-02-11T05:42:08.403Z,100.00
2019-02-11T05:44:35.501Z,100.00
2019-02-11T05:47:02.573Z,100.00
2019-02-11T05:49:29.774Z,100.00
2019-02-11T05:51:56.925Z,100.00
2019-02-11T05:54:36.667Z,100.00
2019-02-11T05:57:03.712Z,100.00
2019-02-11T05:59:30.747Z,100.00
2019-02-11T06:01:57.872Z,100.00
2019-02-11T06:04:24.957Z,100.00
2019-02-11T06:06:52.209Z,100.00
2019-02-11T06:09:19.282Z,100.00
2019-02-11T06:11:46.355Z,100.00
2019-02-11T06:14:15.704Z,100.00
2019-02-11T06:16:42.819Z,100.00
2019-02-11T06:19:10.069Z,100.00
2019-02-11T06:21:37.151Z,100.00
2019-02-11T06:24:13.543Z,100.00
2019-02-11T06:26:40.632Z,100.00
2019-02-11T06:29:07.687Z,100.00
2019-02-11T06:31:34.962Z,100.00
2019-02-11T06:34:02.074Z,100.00
2019-02-11T06:36:29.135Z,100.00
2019-02-11T06:38:58.181Z,100.00
2019-02-11T06:41:25.243Z,100.00
2019-02-11T06:43:52.340Z,100.00
2019-02-11T06:46:19.432Z,100.00
2019-02-11T06:48:46.499Z,100.00
2019-02-11T06:51:13.562Z,100.00
2019-02-11T06:53:40.818Z,100.00
2019-02-11T06:56:07.884Z,100.00
2019-02-11T06:58:35.104Z,100.00
2019-02-11T07:01:02.196Z,100.00
2019-02-11T07:04:24.048Z,100.00
2019-02-11T07:06:51.202Z,100.00
2019-02-11T07:09:18.390Z,100.00
2019-02-11T07:11:45.458Z,100.00
2019-02-11T07:14:12.531Z,100.00
2019-02-11T07:16:39.576Z,100.00
2019-02-11T07:19:06.614Z,100.00
2019-02-11T07:21:33.752Z,100.00
2019-02-11T07:24:00.784Z,100.00
2019-02-11T07:26:27.840Z,100.00
2019-02-11T07:28:55.047Z,100.00
2019-02-11T07:31:23.200Z,100.00
2019-02-11T07:33:50.275Z,100.00
2019-02-11T07:36:18.084Z,100.00
2019-02-11T07:38:45.256Z,100.00
2019-02-11T07:41:13.339Z,100.00
2019-02-11T07:44:02.687Z,100.00
2019-02-11T07:46:42.172Z,100.00
2019-02-11T07:49:40.293Z,100.00
2019-02-11T07:52:08.553Z,100.00
2019-02-11T07:54:35.710Z,100.00
2019-02-11T07:57:02.899Z,100.00
2019-02-11T07:59:29.950Z,100.00
2019-02-11T08:01:57.041Z,100.00
2019-02-11T08:04:24.138Z,100.00
2019-02-11T08:06:51.194Z,100.00
2019-02-11T08:09:18.224Z,100.00
2019-02-11T08:11:45.316Z,100.00
2019-02-11T08:14:12.367Z,100.00
2019-02-11T08:16:39.427Z,100.00
2019-02-11T08:19:06.499Z,100.00
2019-02-11T08:21:33.552Z,100.00
2019-02-11T08:24:00.598Z,100.00
2019-02-11T08:26:27.836Z,100.00
2019-02-11T08:28:54.996Z,100.00
2019-02-11T08:31:22.062Z,100.00
2019-02-11T08:33:49.161Z,100.00
2019-02-11T08:36:16.234Z,100.00
2019-02-11T08:38:43.464Z,100.00
2019-02-11T08:41:10.582Z,100.00
2019-02-11T08:43:37.626Z,100.00
2019-02-11T08:46:04.689Z,100.00
2019-02-11T08:48:31.792Z,100.00
2019-02-11T08:51:01.239Z,100.00
2019-02-11T08:53:28.271Z,100.00
2019-02-11T08:55:55.368Z,100.00
2019-02-11T08:58:22.423Z,100.00
2019-02-11T09:00:49.468Z,100.00
2019-02-11T09:03:16.544Z,100.00
2019-02-11T09:05:43.593Z,100.00
2019-02-11T09:08:10.716Z,100.00
2019-02-11T09:10:46.097Z,100.00
2019-02-11T09:13:13.209Z,100.00
2019-02-11T09:15:40.529Z,100.00
2019-02-11T09:18:07.623Z,100.00
2019-02-11T09:20:34.794Z,100.00
2019-02-11T09:23:01.849Z,100.00
2019-02-11T09:25:28.945Z,100.00
2019-02-11T09:27:56.039Z,100.00
2019-02-11T09:30:23.125Z,100.00
2019-02-11T09:32:50.189Z,100.00
2019-02-11T09:35:17.355Z,100.00
2019-02-11T09:37:44.409Z,100.00
2019-02-11T09:40:12.083Z,100.00
2019-02-11T09:42:39.143Z,100.00
2019-02-11T09:45:09.199Z,100.00
2019-02-11T09:47:36.318Z,100.00
2019-02-11T09:50:14.334Z,100.00
2019-02-11T09:52:41.428Z,100.00
2019-02-11T09:55:19.198Z,100.00
2019-02-11T09:57:46.421Z,100.00
2019-02-11T10:00:13.665Z,100.00
2019-02-11T10:02:59.218Z,100.00
2019-02-11T10:05:26.256Z,100.00
2019-02-11T10:07:54.392Z,100.00
2019-02-11T10:10:23.784Z,100.00
2019-02-11T10:13:14.068Z,100.00
2019-02-11T10:15:41.182Z,100.00
2019-02-11T10:18:08.246Z,100.00
2019-02-11T10:20:35.291Z,100.00
2019-02-11T10:23:02.698Z,100.00
2019-02-11T10:25:29.795Z,100.00
2019-02-11T10:27:59.932Z,100.00
2019-02-11T10:30:27.031Z,100.00
2019-02-11T10:32:54.100Z,100.00
2019-02-11T10:35:21.444Z,100.00
2019-02-11T10:37:48.536Z,100.00
2019-02-11T10:40:15.599Z,100.00
2019-02-11T10:42:42.765Z,100.00
2019-02-11T10:45:11.448Z,100.00
2019-02-11T10:47:40.609Z,100.00
2019-02-11T10:50:50.775Z,100.00
2019-02-11T10:53:19.003Z,100.00
2019-02-11T10:55:47.141Z,100.00
2019-02-11T10:58:14.257Z,100.00
2019-02-11T11:00:41.713Z,100.00
2019-02-11T11:03:09.163Z,100.00
2019-02-11T11:05:36.268Z,100.00
2019-02-11T11:08:03.832Z,100.00
2019-02-11T11:10:32.815Z,98.97
2019-02-11T11:12:59.869Z,100.00
2019-02-11T11:15:28.915Z,100.00
2019-02-11T11:17:56.171Z,100.00
2019-02-11T11:20:23.361Z,100.00
2019-02-11T11:23:08.848Z,100.00
2019-02-11T11:25:35.911Z,100.00
2019-02-11T11:28:03.192Z,100.00
2019-02-11T11:31:34.588Z,100.00
2019-02-11T11:34:01.649Z,100.00
2019-02-11T11:36:28.741Z,100.00
2019-02-11T11:38:55.864Z,100.00
2019-02-11T11:41:24.197Z,100.00
2019-02-11T11:43:51.611Z,100.00
2019-02-11T11:46:18.724Z,100.00
2019-02-11T11:48:45.833Z,100.00
2019-02-11T11:51:13.010Z,100.00
2019-02-11T11:53:40.121Z,100.00
2019-02-11T11:56:07.223Z,100.00
2019-02-11T11:58:34.271Z,100.00
2019-02-11T12:01:01.375Z,100.00
2019-02-11T12:03:29.552Z,100.00
2019-02-11T12:05:56.663Z,100.00
2019-02-11T12:08:23.743Z,100.00
2019-02-11T12:10:50.850Z,100.00
2019-02-11T12:13:23.127Z,100.00
2019-02-11T12:15:48.211Z,100.00
2019-02-11T12:18:15.327Z,100.00
2019-02-11T12:20:43.028Z,100.00
2019-02-11T12:23:10.139Z,100.00
2019-02-11T12:25:37.246Z,100.00
2019-02-11T12:28:06.343Z,100.00
2019-02-11T12:30:33.543Z,100.00
2019-02-11T12:33:00.618Z,100.00
2019-02-11T12:35:39.716Z,100.00
2019-02-11T12:38:06.760Z,100.00
2019-02-11T12:40:33.826Z,100.00
2019-02-11T12:43:00.908Z,100.00
2019-02-11T12:45:28.030Z,100.00
2019-02-11T12:47:55.104Z,100.00
2019-02-11T12:50:22.163Z,100.00
2019-02-11T12:52:49.264Z,100.00
2019-02-11T12:55:16.355Z,100.00
2019-02-11T12:57:43.435Z,100.00
2019-02-11T13:00:16.552Z,100.00
2019-02-11T13:02:41.635Z,100.00
2019-02-11T13:05:09.826Z,100.00
2019-02-11T13:07:37.089Z,100.00
2019-02-11T13:10:06.047Z,100.00
2019-02-11T13:12:33.112Z,100.00
2019-02-11T13:15:00.478Z,100.00
2019-02-11T13:17:34.097Z,100.00
2019-02-11T13:20:08.495Z,100.00
2019-02-11T13:22:27.352Z,100.00
2019-02-11T13:24:54.410Z,100.00
2019-02-11T13:27:21.565Z,100.00
2019-02-11T13:29:48.637Z,100.00
2019-02-11T13:32:15.724Z,100.00
2019-02-11T13:34:42.848Z,100.00
2019-02-11T13:37:12.780Z,100.00
2019-02-11T13:39:39.864Z,100.00
2019-02-11T13:42:06.986Z,100.00
2019-02-11T13:44:34.091Z,100.00
2019-02-11T13:47:01.159Z,100.00
2019-02-11T13:49:28.273Z,100.00
2019-02-11T13:51:57.123Z,100.00
2019-02-11T13:54:24.313Z,100.00
2019-02-11T13:56:51.709Z,100.00
2019-02-11T13:59:18.869Z,100.00
2019-02-11T14:01:45.946Z,100.00
2019-02-11T14:04:13.041Z,100.00
2019-02-11T14:06:41.930Z,100.00
2019-02-11T14:09:11.597Z,100.00
2019-02-11T14:11:39.032Z,100.00
2019-02-11T14:14:06.195Z,100.00
2019-02-11T14:16:34.392Z,100.00
2019-02-11T14:19:01.506Z,100.00
2019-02-11T14:21:28.703Z,100.00
2019-02-11T14:23:57.385Z,100.00
2019-02-11T14:26:24.485Z,100.00
2019-02-11T14:28:51.562Z,100.00
2019-02-11T14:31:18.619Z,100.00
2019-02-11T14:33:46.028Z,100.00
2019-02-11T14:36:13.103Z,100.00
2019-02-11T14:38:40.261Z,100.00
2019-02-11T14:41:07.421Z,100.00
2019-02-11T14:43:34.480Z,100.00
2019-02-11T14:46:01.554Z,100.00
2019-02-11T14:48:29.439Z,100.00
2019-02-11T14:50:57.425Z,100.00
2019-02-11T14:53:24.522Z,100.00
2019-02-11T14:55:55.909Z,100.00
2019-02-11T14:58:22.979Z,100.00
2019-02-11T15:00:50.166Z,100.00
2019-02-11T15:03:17.291Z,100.00
2019-02-11T15:05:44.365Z,100.00
2019-02-11T15:08:11.444Z,100.00
2019-02-11T15:10:38.569Z,100.00
2019-02-11T15:13:05.695Z,100.00
2019-02-11T15:15:32.774Z,100.00
2019-02-11T15:17:59.868Z,100.00
2019-02-11T15:20:26.972Z,98.32
2019-02-11T15:23:12.549Z,97.88
2019-02-11T15:25:39.791Z,96.83
2019-02-11T15:28:06.857Z,96.71
2019-02-11T15:30:33.966Z,96.58
2019-02-11T15:33:01.029Z,96.56
2019-02-11T15:35:40.619Z,95.57
2019-02-11T15:38:07.645Z,95.53
2019-02-11T15:40:34.724Z,94.59
2019-02-11T15:43:01.845Z,95.14
2019-02-11T15:45:29.069Z,95.99
2019-02-11T15:47:56.162Z,94.85
2019-02-11T15:50:23.295Z,94.48
2019-02-11T15:52:50.366Z,93.90
2019-02-11T15:55:17.943Z,92.00
2019-02-11T15:57:45.141Z,93.38
2019-02-11T16:00:17.400Z,94.38
2019-02-11T16:02:44.637Z,94.15
2019-02-11T16:05:16.101Z,94.65
2019-02-11T16:07:40.971Z,94.32
2019-02-11T16:10:09.895Z,94.72
2019-02-11T16:12:36.991Z,95.65
2019-02-11T16:15:04.588Z,95.55
2019-02-11T16:17:31.678Z,94.62
2019-02-11T16:19:59.000Z,94.12
2019-02-11T16:22:26.076Z,93.64
2019-02-11T16:24:53.354Z,93.48
2019-02-11T16:27:20.428Z,93.47
2019-02-11T16:29:47.539Z,93.71
2019-02-11T16:32:14.631Z,94.56
2019-02-11T16:34:41.794Z,94.42
2019-02-11T16:37:08.870Z,95.30
2019-02-11T16:39:35.923Z,95.32
2019-02-11T16:42:03.039Z,95.47
2019-02-11T16:44:30.099Z,95.62
2019-02-11T16:46:57.164Z,97.18
2019-02-11T16:49:24.277Z,96.82
2019-02-11T16:51:51.403Z,96.63
2019-02-11T16:54:18.479Z,97.03
2019-02-11T16:57:22.315Z,96.16
2019-02-11T16:59:50.486Z,96.44
2019-02-11T17:02:17.564Z,96.54
2019-02-11T17:04:45.581Z,96.59
2019-02-11T17:07:12.723Z,96.67
2019-02-11T17:09:39.993Z,97.43
2019-02-11T17:12:11.839Z,97.25
2019-02-11T17:15:17.363Z,97.24
2019-02-11T17:17:44.510Z,97.03
2019-02-11T17:20:12.461Z,97.22
2019-02-11T17:22:41.099Z,96.71
2019-02-11T17:25:08.890Z,96.73
2019-02-11T17:27:35.953Z,96.52
2019-02-11T17:30:03.737Z,96.53
2019-02-11T17:32:30.847Z,96.24
2019-02-11T17:34:57.983Z,96.85
2019-02-11T17:37:25.026Z,96.83
2019-02-11T17:39:52.128Z,97.01
2019-02-11T17:42:19.192Z,98.21
2019-02-11T17:44:46.302Z,98.55
2019-02-11T17:47:13.410Z,98.29
2019-02-11T17:49:40.586Z,98.99
2019-02-11T17:52:09.682Z,99.68
2019-02-11T17:54:37.053Z,100.00
2019-02-11T17:57:04.144Z,100.00
2019-02-11T17:59:31.353Z,100.00
2019-02-11T18:01:58.702Z,100.00
2019-02-11T18:04:25.790Z,100.00
2019-02-11T18:06:52.939Z,100.00
2019-02-11T18:09:20.033Z,100.00
2019-02-11T18:11:47.148Z,100.00
2019-02-11T18:14:14.199Z,100.00
2019-02-11T18:16:41.265Z,100.00
2019-02-11T18:19:08.387Z,100.00
2019-02-11T18:21:35.609Z,100.00
2019-02-11T18:24:02.718Z,100.00
2019-02-11T18:26:29.914Z,100.00
2019-02-11T18:28:58.748Z,100.00
2019-02-11T18:31:25.819Z,100.00
2019-02-11T18:33:52.950Z,100.00
2019-02-11T18:36:20.034Z,100.00
2019-02-11T18:38:47.110Z,100.00
2019-02-11T18:41:14.252Z,100.00
2019-02-11T18:43:41.553Z,100.00
2019-02-11T18:46:09.796Z,100.00
2019-02-11T18:48:37.011Z,100.00
2019-02-11T18:51:04.110Z,100.00
2019-02-11T18:53:31.285Z,100.00
2019-02-11T18:55:58.506Z,100.00
2019-02-11T18:58:25.700Z,100.00
2019-02-11T19:00:52.777Z,100.00
2019-02-11T19:03:19.884Z,100.00
2019-02-11T19:05:47.000Z,100.00
2019-02-11T19:08:14.128Z,100.00
2019-02-11T19:10:41.264Z,100.00
2019-02-11T19:13:10.291Z,100.00
2019-02-11T19:15:37.616Z,100.00
2019-02-11T19:18:04.860Z,100.00
2019-02-11T19:20:32.059Z,100.00
2019-02-11T19:22:59.272Z,100.00
2019-02-11T19:25:26.499Z,100.00
2019-02-11T19:27:53.714Z,100.00
2019-02-11T19:30:21.757Z,100.00
2019-02-11T19:32:48.874Z,100.00
2019-02-11T19:35:16.026Z,100.00
2019-02-11T19:37:43.094Z,100.00
2019-02-11T19:40:11.273Z,100.00
2019-02-11T19:42:38.391Z,100.00
2019-02-11T19:45:08.797Z,100.00
2019-02-11T19:47:36.029Z,100.00
2019-02-11T19:50:04.203Z,100.00
2019-02-11T19:52:31.326Z,100.00
2019-02-11T19:54:58.391Z,100.00
2019-02-11T19:57:25.632Z,100.00
2019-02-11T19:59:52.810Z,100.00
2019-02-11T20:02:19.897Z,100.00
2019-02-11T20:04:47.033Z,100.00
2019-02-11T20:07:14.248Z,100.00
2019-02-11T20:09:41.526Z,100.00
2019-02-11T20:12:45.346Z,100.00
2019-02-11T20:15:14.760Z,100.00
2019-02-11T20:17:41.924Z,100.00
2019-02-11T20:20:10.732Z,100.00
2019-02-11T20:22:38.258Z,100.00
2019-02-11T20:25:06.535Z,100.00
2019-02-11T20:27:33.628Z,100.00
2019-02-11T20:30:00.842Z,100.00
2019-02-11T20:32:28.077Z,100.00
2019-02-11T20:34:55.161Z,100.00
2019-02-11T20:37:22.639Z,100.00
2019-02-11T20:39:49.827Z,100.00
2019-02-11T20:42:17.192Z,100.00
2019-02-11T20:44:44.351Z,100.00
2019-02-11T20:47:11.500Z,100.00
2019-02-11T20:49:38.662Z,100.00
2019-02-11T20:55:47.074Z,100.00
2019-02-11T20:58:14.367Z,100.00
2019-02-11T21:00:41.457Z,100.00
2019-02-11T21:03:08.824Z,100.00
2019-02-11T21:05:35.863Z,100.00
2019-02-11T21:08:03.200Z,100.00
2019-02-11T21:10:32.627Z,100.00
2019-02-11T21:12:59.727Z,100.00
2019-02-11T21:15:26.795Z,100.00
2019-02-11T21:17:54.087Z,100.00
2019-02-11T21:20:24.029Z,100.00
2019-02-11T21:22:51.649Z,100.00
2019-02-11T21:25:18.971Z,100.00
2019-02-11T21:27:46.186Z,100.00
2019-02-11T21:30:13.562Z,100.00
2019-02-11T21:32:40.811Z,100.00
2019-02-11T21:35:09.364Z,100.00
2019-02-11T21:37:36.543Z,100.00
2019-02-11T21:40:03.784Z,100.00
2019-02-11T21:42:31.074Z,100.00
2019-02-11T21:44:58.170Z,100.00
2019-02-11T21:47:26.285Z,100.00
2019-02-11T21:49:53.498Z,100.00
2019-02-11T21:56:11.176Z,100.00
2019-02-11T21:58:38.249Z,100.00
2019-02-11T22:01:05.367Z,100.00
2019-02-11T22:03:32.466Z,100.00
2019-02-11T22:05:59.580Z,100.00
2019-02-11T22:08:26.694Z,100.00
2019-02-11T22:10:53.798Z,100.00
2019-02-11T22:13:20.873Z,100.00
2019-02-11T22:15:47.998Z,100.00
2019-02-11T22:18:15.094Z,100.00
2019-02-11T22:20:42.220Z,100.00
2019-02-11T22:23:09.330Z,100.00
2019-02-11T22:25:37.320Z,100.00
2019-02-11T22:28:05.009Z,100.00
2019-02-11T22:30:32.091Z,100.00
2019-02-11T22:33:37.091Z,100.00
2019-02-11T22:36:04.229Z,100.00
2019-02-11T22:38:31.503Z,100.00
2019-02-11T22:40:58.604Z,100.00
2019-02-11T22:43:25.732Z,100.00
2019-02-11T22:45:52.858Z,100.00
2019-02-11T22:48:20.057Z,100.00
2019-02-11T22:50:47.210Z,100.00
2019-02-11T22:53:14.376Z,100.00
2019-02-11T22:55:41.484Z,100.00
2019-02-11T22:58:08.601Z,100.00
2019-02-11T23:00:44.831Z,100.00
2019-02-11T23:03:12.231Z,100.00
2019-02-11T23:05:39.335Z,100.00
2019-02-11T23:08:06.516Z,100.00
2019-02-11T23:10:33.611Z,100.00
2019-02-11T23:13:00.793Z,100.00
2019-02-11T23:15:27.895Z,100.00
2019-02-11T23:17:55.073Z,100.00
2019-02-11T23:20:22.138Z,100.00
2019-02-11T23:22:49.352Z,100.00
2019-02-11T23:25:16.418Z,100.00
2019-02-11T23:27:43.497Z,100.00
2019-02-11T23:30:13.610Z,100.00
2019-02-11T23:32:39.961Z,100.00
2019-02-11T23:35:07.322Z,100.00
2019-02-11T23:37:34.602Z,100.00
2019-02-11T23:40:01.724Z,100.00
2019-02-11T23:42:29.106Z,100.00
2019-02-11T23:44:56.294Z,100.00
2019-02-11T23:47:23.377Z,100.00
2019-02-11T23:49:50.438Z,100.00
2019-02-11T23:52:17.544Z,100.00
2019-02-11T23:54:44.617Z,100.00
2019-02-11T23:57:11.714Z,100.00
2019-02-11T23:59:38.909Z,100.00
